sensor_id;sensor_type;location;lat;lon;timestamp;P1;durP1;ratioP1;P2;durP2;ratioP2
44366;SDS011;30086;57.660;12.000;2022-12-29T00:02:11;6.07;;;3.08;;
44366;SDS011;30086;57.660;12.000;2022-12-29T00:04:38;5.07;;;3.00;;
44366;SDS011;30086;57.660;12.000;2022-12-29T00:07:04;6.10;;;2.65;;
44366;SDS011;30086;57.660;12.000;2022-12-29T00:09:31;5.63;;;2.60;;
44366;SDS011;30086;57.660;12.000;2022-12-29T00:11:58;3.80;;;2.50;;
44366;SDS011;30086;57.660;12.000;2022-12-29T00:14:27;7.40;;;2.75;;
44366;SDS011;30086;57.660;12.000;2022-12-29T00:17:13;6.68;;;2.45;;
44366;SDS011;30086;57.660;12.000;2022-12-29T00:20:05;6.35;;;3.15;;
44366;SDS011;30086;57.660;12.000;2022-12-29T00:22:49;3.63;;;2.58;;
44366;SDS011;30086;57.660;12.000;2022-12-29T00:25:35;5.03;;;2.63;;
44366;SDS011;30086;57.660;12.000;2022-12-29T00:28:20;5.38;;;2.88;;
44366;SDS011;30086;57.660;12.000;2022-12-29T00:31:07;5.65;;;2.80;;
44366;SDS011;30086;57.660;12.000;2022-12-29T00:33:52;7.30;;;3.00;;
44366;SDS011;30086;57.660;12.000;2022-12-29T00:36:37;4.75;;;2.80;;
44366;SDS011;30086;57.660;12.000;2022-12-29T00:39:07;5.05;;;2.70;;
44366;SDS011;30086;57.660;12.000;2022-12-29T00:41:53;7.38;;;2.88;;
44366;SDS011;30086;57.660;12.000;2022-12-29T00:44:38;3.67;;;2.25;;
44366;SDS011;30086;57.660;12.000;2022-12-29T00:47:04;4.43;;;2.67;;
44366;SDS011;30086;57.660;12.000;2022-12-29T00:49:30;5.10;;;2.25;;
44366;SDS011;30086;57.660;12.000;2022-12-29T00:54:28;4.30;;;2.50;;
44366;SDS011;30086;57.660;12.000;2022-12-29T00:56:54;4.32;;;2.65;;
44366;SDS011;30086;57.660;12.000;2022-12-29T00:59:21;3.30;;;2.05;;
44366;SDS011;30086;57.660;12.000;2022-12-29T01:01:49;3.08;;;1.80;;
44366;SDS011;30086;57.660;12.000;2022-12-29T01:04:15;1.83;;;1.63;;
44366;SDS011;30086;57.660;12.000;2022-12-29T01:06:41;3.65;;;1.73;;
44366;SDS011;30086;57.660;12.000;2022-12-29T01:09:07;2.58;;;1.90;;
44366;SDS011;30086;57.660;12.000;2022-12-29T01:11:52;3.38;;;2.33;;
44366;SDS011;30086;57.660;12.000;2022-12-29T01:14:19;3.22;;;2.15;;
44366;SDS011;30086;57.660;12.000;2022-12-29T01:16:45;5.93;;;2.30;;
44366;SDS011;30086;57.660;12.000;2022-12-29T01:19:12;6.85;;;2.22;;
44366;SDS011;30086;57.660;12.000;2022-12-29T01:21:38;8.70;;;3.08;;
44366;SDS011;30086;57.660;12.000;2022-12-29T01:24:04;5.82;;;2.58;;
44366;SDS011;30086;57.660;12.000;2022-12-29T01:26:30;5.68;;;3.60;;
44366;SDS011;30086;57.660;12.000;2022-12-29T01:28:56;9.30;;;3.42;;
44366;SDS011;30086;57.660;12.000;2022-12-29T01:31:22;16.13;;;4.68;;
44366;SDS011;30086;57.660;12.000;2022-12-29T01:33:49;10.45;;;3.80;;
44366;SDS011;30086;57.660;12.000;2022-12-29T01:36:15;9.13;;;4.70;;
44366;SDS011;30086;57.660;12.000;2022-12-29T01:38:42;12.10;;;5.80;;
44366;SDS011;30086;57.660;12.000;2022-12-29T01:41:09;15.82;;;5.63;;
44366;SDS011;30086;57.660;12.000;2022-12-29T01:43:43;15.38;;;5.80;;
44366;SDS011;30086;57.660;12.000;2022-12-29T01:48:42;12.00;;;5.28;;
44366;SDS011;30086;57.660;12.000;2022-12-29T01:51:09;13.82;;;4.82;;
44366;SDS011;30086;57.660;12.000;2022-12-29T01:53:35;16.10;;;6.25;;
44366;SDS011;30086;57.660;12.000;2022-12-29T01:56:03;9.75;;;5.13;;
44366;SDS011;30086;57.660;12.000;2022-12-29T01:58:32;9.18;;;3.70;;
44366;SDS011;30086;57.660;12.000;2022-12-29T02:00:59;7.78;;;3.83;;
44366;SDS011;30086;57.660;12.000;2022-12-29T02:03:26;5.90;;;3.00;;
44366;SDS011;30086;57.660;12.000;2022-12-29T02:05:54;8.75;;;3.88;;
44366;SDS011;30086;57.660;12.000;2022-12-29T02:08:22;8.52;;;3.65;;
44366;SDS011;30086;57.660;12.000;2022-12-29T02:10:50;5.88;;;3.30;;
44366;SDS011;30086;57.660;12.000;2022-12-29T02:13:16;7.25;;;3.60;;
44366;SDS011;30086;57.660;12.000;2022-12-29T02:15:53;6.32;;;3.05;;
44366;SDS011;30086;57.660;12.000;2022-12-29T02:18:28;3.88;;;3.20;;
44366;SDS011;30086;57.660;12.000;2022-12-29T02:28:42;6.28;;;3.92;;
44366;SDS011;30086;57.660;12.000;2022-12-29T02:44:18;5.88;;;2.53;;
44366;SDS011;30086;57.660;12.000;2022-12-29T02:46:50;8.35;;;6.38;;
44366;SDS011;30086;57.660;12.000;2022-12-29T02:51:52;3.20;;;2.47;;
44366;SDS011;30086;57.660;12.000;2022-12-29T02:54:20;4.20;;;3.65;;
44366;SDS011;30086;57.660;12.000;2022-12-29T02:57:08;5.93;;;5.43;;
44366;SDS011;30086;57.660;12.000;2022-12-29T02:59:34;7.00;;;6.50;;
44366;SDS011;30086;57.660;12.000;2022-12-29T03:12:44;3.60;;;3.30;;
44366;SDS011;30086;57.660;12.000;2022-12-29T03:15:37;3.30;;;1.38;;
44366;SDS011;30086;57.660;12.000;2022-12-29T03:21:18;1.95;;;1.40;;
44366;SDS011;30086;57.660;12.000;2022-12-29T03:23:46;2.15;;;1.95;;
44366;SDS011;30086;57.660;12.000;2022-12-29T03:26:15;2.78;;;1.40;;
44366;SDS011;30086;57.660;12.000;2022-12-29T03:28:52;4.40;;;2.42;;
44366;SDS011;30086;57.660;12.000;2022-12-29T03:31:20;3.05;;;1.65;;
44366;SDS011;30086;57.660;12.000;2022-12-29T03:33:47;3.80;;;1.92;;
44366;SDS011;30086;57.660;12.000;2022-12-29T03:36:20;1.85;;;1.40;;
44366;SDS011;30086;57.660;12.000;2022-12-29T03:38:59;11.82;;;11.10;;
44366;SDS011;30086;57.660;12.000;2022-12-29T03:41:30;1.88;;;1.20;;
44366;SDS011;30086;57.660;12.000;2022-12-29T03:43:56;1.73;;;1.23;;
44366;SDS011;30086;57.660;12.000;2022-12-29T03:46:22;1.80;;;1.50;;
44366;SDS011;30086;57.660;12.000;2022-12-29T03:48:48;4.53;;;4.07;;
44366;SDS011;30086;57.660;12.000;2022-12-29T03:51:14;1.08;;;0.95;;
44366;SDS011;30086;57.660;12.000;2022-12-29T03:53:40;18.30;;;17.20;;
44366;SDS011;30086;57.660;12.000;2022-12-29T03:56:06;1.40;;;1.30;;
44366;SDS011;30086;57.660;12.000;2022-12-29T03:58:32;1.77;;;1.67;;
44366;SDS011;30086;57.660;12.000;2022-12-29T04:00:58;7.35;;;6.75;;
44366;SDS011;30086;57.660;12.000;2022-12-29T04:03:24;0.52;;;0.50;;
44366;SDS011;30086;57.660;12.000;2022-12-29T04:05:50;2.72;;;1.17;;
44366;SDS011;30086;57.660;12.000;2022-12-29T04:08:16;7.30;;;6.90;;
44366;SDS011;30086;57.660;12.000;2022-12-29T04:10:42;0.88;;;0.60;;
44366;SDS011;30086;57.660;12.000;2022-12-29T04:13:10;0.00;;;0.00;;
44366;SDS011;30086;57.660;12.000;2022-12-29T04:15:36;0.00;;;0.00;;
44366;SDS011;30086;57.660;12.000;2022-12-29T04:18:02;0.00;;;0.00;;
44366;SDS011;30086;57.660;12.000;2022-12-29T04:20:28;0.00;;;0.00;;
44366;SDS011;30086;57.660;12.000;2022-12-29T04:23:13;0.00;;;0.00;;
44366;SDS011;30086;57.660;12.000;2022-12-29T04:25:39;0.00;;;0.00;;
44366;SDS011;30086;57.660;12.000;2022-12-29T04:28:05;0.00;;;0.00;;
44366;SDS011;30086;57.660;12.000;2022-12-29T04:30:32;0.00;;;0.00;;
44366;SDS011;30086;57.660;12.000;2022-12-29T04:32:59;0.00;;;0.00;;
44366;SDS011;30086;57.660;12.000;2022-12-29T04:35:25;0.00;;;0.00;;
44366;SDS011;30086;57.660;12.000;2022-12-29T04:37:52;0.00;;;0.00;;
44366;SDS011;30086;57.660;12.000;2022-12-29T04:40:18;0.00;;;0.00;;
44366;SDS011;30086;57.660;12.000;2022-12-29T04:42:44;0.00;;;0.00;;
44366;SDS011;30086;57.660;12.000;2022-12-29T04:45:10;0.00;;;0.00;;
44366;SDS011;30086;57.660;12.000;2022-12-29T04:47:37;0.00;;;0.00;;
44366;SDS011;30086;57.660;12.000;2022-12-29T04:50:03;0.00;;;0.00;;
44366;SDS011;30086;57.660;12.000;2022-12-29T04:52:29;0.00;;;0.00;;
44366;SDS011;30086;57.660;12.000;2022-12-29T04:54:55;0.00;;;0.00;;
44366;SDS011;30086;57.660;12.000;2022-12-29T04:57:21;0.00;;;0.00;;
44366;SDS011;30086;57.660;12.000;2022-12-29T04:59:47;0.00;;;0.00;;
44366;SDS011;30086;57.660;12.000;2022-12-29T05:02:13;0.00;;;0.00;;
44366;SDS011;30086;57.660;12.000;2022-12-29T05:04:39;0.00;;;0.00;;
44366;SDS011;30086;57.660;12.000;2022-12-29T05:07:05;0.00;;;0.00;;
44366;SDS011;30086;57.660;12.000;2022-12-29T05:09:31;0.00;;;0.00;;
44366;SDS011;30086;57.660;12.000;2022-12-29T05:11:57;0.00;;;0.00;;
44366;SDS011;30086;57.660;12.000;2022-12-29T05:14:23;2.30;;;1.45;;
44366;SDS011;30086;57.660;12.000;2022-12-29T05:16:49;0.00;;;0.00;;
44366;SDS011;30086;57.660;12.000;2022-12-29T05:19:17;0.00;;;0.00;;
44366;SDS011;30086;57.660;12.000;2022-12-29T05:21:43;0.00;;;0.00;;
44366;SDS011;30086;57.660;12.000;2022-12-29T05:24:09;0.00;;;0.00;;
44366;SDS011;30086;57.660;12.000;2022-12-29T05:26:35;0.00;;;0.00;;
44366;SDS011;30086;57.660;12.000;2022-12-29T05:29:01;0.00;;;0.00;;
44366;SDS011;30086;57.660;12.000;2022-12-29T05:31:27;0.00;;;0.00;;
44366;SDS011;30086;57.660;12.000;2022-12-29T05:33:53;0.00;;;0.00;;
44366;SDS011;30086;57.660;12.000;2022-12-29T05:36:20;0.00;;;0.00;;
44366;SDS011;30086;57.660;12.000;2022-12-29T05:38:46;0.00;;;0.00;;
44366;SDS011;30086;57.660;12.000;2022-12-29T05:41:12;0.00;;;0.00;;
44366;SDS011;30086;57.660;12.000;2022-12-29T05:43:38;0.00;;;0.00;;
44366;SDS011;30086;57.660;12.000;2022-12-29T05:46:04;0.00;;;0.00;;
44366;SDS011;30086;57.660;12.000;2022-12-29T05:48:30;0.00;;;0.00;;
44366;SDS011;30086;57.660;12.000;2022-12-29T05:50:56;0.00;;;0.00;;
44366;SDS011;30086;57.660;12.000;2022-12-29T05:53:22;0.00;;;0.00;;
44366;SDS011;30086;57.660;12.000;2022-12-29T05:55:48;0.00;;;0.00;;
44366;SDS011;30086;57.660;12.000;2022-12-29T05:58:15;0.00;;;0.00;;
44366;SDS011;30086;57.660;12.000;2022-12-29T06:00:41;0.00;;;0.00;;
44366;SDS011;30086;57.660;12.000;2022-12-29T06:03:08;0.00;;;0.00;;
44366;SDS011;30086;57.660;12.000;2022-12-29T06:05:34;0.00;;;0.00;;
44366;SDS011;30086;57.660;12.000;2022-12-29T06:08:00;0.00;;;0.00;;
44366;SDS011;30086;57.660;12.000;2022-12-29T06:10:26;0.00;;;0.00;;
44366;SDS011;30086;57.660;12.000;2022-12-29T06:12:52;0.00;;;0.00;;
44366;SDS011;30086;57.660;12.000;2022-12-29T06:15:18;0.00;;;0.00;;
44366;SDS011;30086;57.660;12.000;2022-12-29T06:17:44;0.00;;;0.00;;
44366;SDS011;30086;57.660;12.000;2022-12-29T06:20:11;0.00;;;0.00;;
44366;SDS011;30086;57.660;12.000;2022-12-29T06:22:37;0.00;;;0.00;;
44366;SDS011;30086;57.660;12.000;2022-12-29T06:25:03;0.00;;;0.00;;
44366;SDS011;30086;57.660;12.000;2022-12-29T06:27:30;0.00;;;0.00;;
44366;SDS011;30086;57.660;12.000;2022-12-29T06:29:56;0.00;;;0.00;;
44366;SDS011;30086;57.660;12.000;2022-12-29T06:32:22;0.00;;;0.00;;
44366;SDS011;30086;57.660;12.000;2022-12-29T06:34:48;0.10;;;0.10;;
44366;SDS011;30086;57.660;12.000;2022-12-29T06:37:14;0.00;;;0.00;;
44366;SDS011;30086;57.660;12.000;2022-12-29T06:39:41;0.00;;;0.00;;
44366;SDS011;30086;57.660;12.000;2022-12-29T06:42:08;0.10;;;0.10;;
44366;SDS011;30086;57.660;12.000;2022-12-29T06:44:34;0.00;;;0.00;;
44366;SDS011;30086;57.660;12.000;2022-12-29T06:47:00;0.00;;;0.00;;
44366;SDS011;30086;57.660;12.000;2022-12-29T06:49:26;0.00;;;0.00;;
44366;SDS011;30086;57.660;12.000;2022-12-29T06:51:52;0.00;;;0.00;;
44366;SDS011;30086;57.660;12.000;2022-12-29T06:54:19;0.00;;;0.00;;
44366;SDS011;30086;57.660;12.000;2022-12-29T06:56:45;0.00;;;0.00;;
44366;SDS011;30086;57.660;12.000;2022-12-29T06:59:11;0.00;;;0.00;;
44366;SDS011;30086;57.660;12.000;2022-12-29T07:01:37;0.00;;;0.00;;
44366;SDS011;30086;57.660;12.000;2022-12-29T07:04:03;0.00;;;0.00;;
44366;SDS011;30086;57.660;12.000;2022-12-29T07:06:29;0.00;;;0.00;;
44366;SDS011;30086;57.660;12.000;2022-12-29T07:08:55;0.00;;;0.00;;
44366;SDS011;30086;57.660;12.000;2022-12-29T07:11:22;0.00;;;0.00;;
44366;SDS011;30086;57.660;12.000;2022-12-29T07:13:48;0.00;;;0.00;;
44366;SDS011;30086;57.660;12.000;2022-12-29T07:16:15;0.00;;;0.00;;
44366;SDS011;30086;57.660;12.000;2022-12-29T07:18:41;0.00;;;0.00;;
44366;SDS011;30086;57.660;12.000;2022-12-29T07:21:07;0.00;;;0.00;;
44366;SDS011;30086;57.660;12.000;2022-12-29T07:23:33;14.50;;;7.78;;
44366;SDS011;30086;57.660;12.000;2022-12-29T07:26:04;0.00;;;0.00;;
44366;SDS011;30086;57.660;12.000;2022-12-29T07:28:31;0.00;;;0.00;;
44366;SDS011;30086;57.660;12.000;2022-12-29T07:30:58;0.00;;;0.00;;
44366;SDS011;30086;57.660;12.000;2022-12-29T07:33:24;0.00;;;0.00;;
44366;SDS011;30086;57.660;12.000;2022-12-29T07:35:51;26.73;;;10.38;;
44366;SDS011;30086;57.660;12.000;2022-12-29T07:38:20;23.77;;;11.77;;
44366;SDS011;30086;57.660;12.000;2022-12-29T07:40:46;40.90;;;37.28;;
44366;SDS011;30086;57.660;12.000;2022-12-29T07:43:12;22.65;;;12.45;;
44366;SDS011;30086;57.660;12.000;2022-12-29T07:45:38;15.63;;;10.25;;
44366;SDS011;30086;57.660;12.000;2022-12-29T07:48:04;14.38;;;7.63;;
44366;SDS011;30086;57.660;12.000;2022-12-29T07:50:33;20.83;;;8.55;;
44366;SDS011;30086;57.660;12.000;2022-12-29T07:53:02;17.40;;;8.93;;
44366;SDS011;30086;57.660;12.000;2022-12-29T07:55:28;21.33;;;12.60;;
44366;SDS011;30086;57.660;12.000;2022-12-29T07:57:54;19.10;;;7.40;;
44366;SDS011;30086;57.660;12.000;2022-12-29T08:00:21;55.47;;;50.67;;
44366;SDS011;30086;57.660;12.000;2022-12-29T08:02:47;33.45;;;28.25;;
44366;SDS011;30086;57.660;12.000;2022-12-29T08:05:13;27.88;;;20.50;;
44366;SDS011;30086;57.660;12.000;2022-12-29T08:07:42;21.25;;;9.43;;
44366;SDS011;30086;57.660;12.000;2022-12-29T08:10:09;23.58;;;16.42;;
44366;SDS011;30086;57.660;12.000;2022-12-29T08:12:35;28.15;;;12.57;;
44366;SDS011;30086;57.660;12.000;2022-12-29T08:15:01;32.35;;;11.55;;
44366;SDS011;30086;57.660;12.000;2022-12-29T08:17:27;26.50;;;10.68;;
44366;SDS011;30086;57.660;12.000;2022-12-29T08:19:53;22.67;;;10.98;;
44366;SDS011;30086;57.660;12.000;2022-12-29T08:22:19;36.15;;;12.45;;
44366;SDS011;30086;57.660;12.000;2022-12-29T08:24:45;37.97;;;34.53;;
44366;SDS011;30086;57.660;12.000;2022-12-29T08:27:11;24.20;;;8.88;;
44366;SDS011;30086;57.660;12.000;2022-12-29T08:29:37;19.23;;;7.72;;
44366;SDS011;30086;57.660;12.000;2022-12-29T08:32:03;21.13;;;10.75;;
44366;SDS011;30086;57.660;12.000;2022-12-29T08:34:30;21.23;;;8.82;;
44366;SDS011;30086;57.660;12.000;2022-12-29T08:36:56;23.45;;;7.95;;
44366;SDS011;30086;57.660;12.000;2022-12-29T08:39:22;36.83;;;7.63;;
44366;SDS011;30086;57.660;12.000;2022-12-29T08:41:48;23.30;;;10.38;;
44366;SDS011;30086;57.660;12.000;2022-12-29T08:44:15;21.17;;;6.25;;
44366;SDS011;30086;57.660;12.000;2022-12-29T08:46:41;24.50;;;6.57;;
44366;SDS011;30086;57.660;12.000;2022-12-29T08:49:07;18.98;;;8.27;;
44366;SDS011;30086;57.660;12.000;2022-12-29T08:51:33;24.58;;;7.22;;
44366;SDS011;30086;57.660;12.000;2022-12-29T08:53:59;22.48;;;5.90;;
44366;SDS011;30086;57.660;12.000;2022-12-29T08:56:25;20.42;;;7.13;;
44366;SDS011;30086;57.660;12.000;2022-12-29T08:58:52;24.50;;;15.40;;
44366;SDS011;30086;57.660;12.000;2022-12-29T09:01:18;23.63;;;9.55;;
44366;SDS011;30086;57.660;12.000;2022-12-29T09:03:45;23.17;;;7.18;;
44366;SDS011;30086;57.660;12.000;2022-12-29T09:06:11;29.90;;;25.40;;
44366;SDS011;30086;57.660;12.000;2022-12-29T09:08:37;22.95;;;9.95;;
44366;SDS011;30086;57.660;12.000;2022-12-29T09:11:11;27.08;;;9.80;;
44366;SDS011;30086;57.660;12.000;2022-12-29T09:13:37;25.83;;;8.32;;
44366;SDS011;30086;57.660;12.000;2022-12-29T09:16:04;33.53;;;8.70;;
44366;SDS011;30086;57.660;12.000;2022-12-29T09:18:30;58.05;;;50.45;;
44366;SDS011;30086;57.660;12.000;2022-12-29T09:21:00;32.33;;;21.60;;
44366;SDS011;30086;57.660;12.000;2022-12-29T09:23:27;30.35;;;10.25;;
44366;SDS011;30086;57.660;12.000;2022-12-29T09:25:54;35.40;;;20.38;;
44366;SDS011;30086;57.660;12.000;2022-12-29T09:28:26;34.10;;;12.52;;
44366;SDS011;30086;57.660;12.000;2022-12-29T09:30:54;35.20;;;13.25;;
44366;SDS011;30086;57.660;12.000;2022-12-29T09:33:20;30.58;;;17.75;;
44366;SDS011;30086;57.660;12.000;2022-12-29T09:35:50;36.20;;;18.20;;
44366;SDS011;30086;57.660;12.000;2022-12-29T09:38:17;40.97;;;16.70;;
44366;SDS011;30086;57.660;12.000;2022-12-29T09:40:45;32.80;;;17.85;;
44366;SDS011;30086;57.660;12.000;2022-12-29T09:43:28;34.65;;;17.17;;
44366;SDS011;30086;57.660;12.000;2022-12-29T09:48:28;36.92;;;16.58;;
44366;SDS011;30086;57.660;12.000;2022-12-29T09:50:56;47.13;;;27.48;;
44366;SDS011;30086;57.660;12.000;2022-12-29T09:53:35;49.38;;;32.75;;
44366;SDS011;30086;57.660;12.000;2022-12-29T09:56:02;35.42;;;16.58;;
44366;SDS011;30086;57.660;12.000;2022-12-29T09:58:36;31.83;;;13.70;;
44366;SDS011;30086;57.660;12.000;2022-12-29T10:01:06;29.65;;;14.93;;
44366;SDS011;30086;57.660;12.000;2022-12-29T10:08:39;45.08;;;34.45;;
44366;SDS011;30086;57.660;12.000;2022-12-29T10:13:48;48.08;;;34.70;;
44366;SDS011;30086;57.660;12.000;2022-12-29T10:16:21;32.67;;;15.60;;
44366;SDS011;30086;57.660;12.000;2022-12-29T10:18:57;35.40;;;16.25;;
44366;SDS011;30086;57.660;12.000;2022-12-29T10:21:37;37.38;;;19.50;;
44366;SDS011;30086;57.660;12.000;2022-12-29T10:24:09;37.75;;;14.13;;
44366;SDS011;30086;57.660;12.000;2022-12-29T10:26:38;37.78;;;18.88;;
44366;SDS011;30086;57.660;12.000;2022-12-29T10:29:06;35.67;;;13.43;;
44366;SDS011;30086;57.660;12.000;2022-12-29T10:31:43;31.23;;;12.35;;
44366;SDS011;30086;57.660;12.000;2022-12-29T10:36:46;30.35;;;9.68;;
44366;SDS011;30086;57.660;12.000;2022-12-29T10:39:28;26.48;;;19.80;;
44366;SDS011;30086;57.660;12.000;2022-12-29T10:44:22;24.67;;;10.95;;
44366;SDS011;30086;57.660;12.000;2022-12-29T10:46:59;23.77;;;13.15;;
44366;SDS011;30086;57.660;12.000;2022-12-29T10:49:29;23.33;;;12.43;;
44366;SDS011;30086;57.660;12.000;2022-12-29T10:51:57;42.33;;;7.93;;
44366;SDS011;30086;57.660;12.000;2022-12-29T10:54:29;24.40;;;8.25;;
44366;SDS011;30086;57.660;12.000;2022-12-29T10:57:01;42.95;;;28.17;;
44366;SDS011;30086;57.660;12.000;2022-12-29T10:59:30;31.98;;;8.15;;
44366;SDS011;30086;57.660;12.000;2022-12-29T11:07:10;23.58;;;5.47;;
44366;SDS011;30086;57.660;12.000;2022-12-29T11:09:38;26.60;;;11.52;;
44366;SDS011;30086;57.660;12.000;2022-12-29T11:12:27;22.20;;;6.40;;
44366;SDS011;30086;57.660;12.000;2022-12-29T11:17:47;19.92;;;4.95;;
44366;SDS011;30086;57.660;12.000;2022-12-29T11:22:45;25.65;;;6.10;;
44366;SDS011;30086;57.660;12.000;2022-12-29T11:25:12;25.50;;;4.65;;
44366;SDS011;30086;57.660;12.000;2022-12-29T11:27:38;52.33;;;45.95;;
44366;SDS011;30086;57.660;12.000;2022-12-29T11:30:22;34.28;;;5.38;;
44366;SDS011;30086;57.660;12.000;2022-12-29T11:32:52;22.17;;;4.45;;
44366;SDS011;30086;57.660;12.000;2022-12-29T11:35:29;25.27;;;5.93;;
44366;SDS011;30086;57.660;12.000;2022-12-29T11:37:56;24.17;;;5.00;;
44366;SDS011;30086;57.660;12.000;2022-12-29T11:40:23;26.55;;;5.07;;
44366;SDS011;30086;57.660;12.000;2022-12-29T11:42:51;39.65;;;7.63;;
44366;SDS011;30086;57.660;12.000;2022-12-29T11:45:19;26.42;;;5.30;;
44366;SDS011;30086;57.660;12.000;2022-12-29T11:47:47;65.30;;;58.85;;
44366;SDS011;30086;57.660;12.000;2022-12-29T11:50:22;30.67;;;13.77;;
44366;SDS011;30086;57.660;12.000;2022-12-29T11:52:50;36.55;;;12.70;;
44366;SDS011;30086;57.660;12.000;2022-12-29T11:55:23;31.02;;;4.85;;
44366;SDS011;30086;57.660;12.000;2022-12-29T11:57:51;38.95;;;21.30;;
44366;SDS011;30086;57.660;12.000;2022-12-29T12:00:19;40.47;;;8.88;;
44366;SDS011;30086;57.660;12.000;2022-12-29T12:02:58;32.47;;;5.90;;
44366;SDS011;30086;57.660;12.000;2022-12-29T12:05:28;33.67;;;16.73;;
44366;SDS011;30086;57.660;12.000;2022-12-29T12:10:27;42.63;;;14.50;;
44366;SDS011;30086;57.660;12.000;2022-12-29T12:15:28;38.38;;;5.97;;
44366;SDS011;30086;57.660;12.000;2022-12-29T12:18:08;29.98;;;10.18;;
44366;SDS011;30086;57.660;12.000;2022-12-29T12:20:41;38.40;;;19.77;;
44366;SDS011;30086;57.660;12.000;2022-12-29T12:25:37;38.90;;;8.35;;
44366;SDS011;30086;57.660;12.000;2022-12-29T12:28:15;41.20;;;6.95;;
44366;SDS011;30086;57.660;12.000;2022-12-29T12:30:46;91.65;;;83.97;;
44366;SDS011;30086;57.660;12.000;2022-12-29T12:35:51;39.17;;;14.10;;
44366;SDS011;30086;57.660;12.000;2022-12-29T12:41:21;40.50;;;5.70;;
44366;SDS011;30086;57.660;12.000;2022-12-29T12:43:59;37.25;;;8.63;;
44366;SDS011;30086;57.660;12.000;2022-12-29T12:59:38;26.70;;;4.28;;
44366;SDS011;30086;57.660;12.000;2022-12-29T13:04:41;40.90;;;8.40;;
44366;SDS011;30086;57.660;12.000;2022-12-29T13:09:45;36.67;;;10.35;;
44366;SDS011;30086;57.660;12.000;2022-12-29T13:17:13;44.08;;;23.42;;
44366;SDS011;30086;57.660;12.000;2022-12-29T13:22:22;36.10;;;5.47;;
44366;SDS011;30086;57.660;12.000;2022-12-29T13:27:30;36.55;;;5.88;;
44366;SDS011;30086;57.660;12.000;2022-12-29T13:30:04;41.28;;;7.65;;
44366;SDS011;30086;57.660;12.000;2022-12-29T13:32:53;29.48;;;5.35;;
44366;SDS011;30086;57.660;12.000;2022-12-29T13:38:30;30.02;;;4.90;;
44366;SDS011;30086;57.660;12.000;2022-12-29T13:40:53;37.03;;;22.60;;
44366;SDS011;30086;57.660;12.000;2022-12-29T13:43:24;41.78;;;7.32;;
44366;SDS011;30086;57.660;12.000;2022-12-29T13:45:55;39.08;;;5.47;;
44366;SDS011;30086;57.660;12.000;2022-12-29T13:48:32;43.13;;;8.43;;
44366;SDS011;30086;57.660;12.000;2022-12-29T13:51:00;32.88;;;6.63;;
44366;SDS011;30086;57.660;12.000;2022-12-29T13:58:48;29.38;;;5.80;;
44366;SDS011;30086;57.660;12.000;2022-12-29T14:03:55;44.20;;;13.63;;
44366;SDS011;30086;57.660;12.000;2022-12-29T14:11:33;27.52;;;6.07;;
44366;SDS011;30086;57.660;12.000;2022-12-29T14:16:28;30.77;;;8.65;;
44366;SDS011;30086;57.660;12.000;2022-12-29T14:18:55;170.48;;;156.10;;
44366;SDS011;30086;57.660;12.000;2022-12-29T14:21:23;49.55;;;24.98;;
44366;SDS011;30086;57.660;12.000;2022-12-29T14:24:02;37.00;;;5.95;;
44366;SDS011;30086;57.660;12.000;2022-12-29T14:26:41;39.47;;;7.15;;
44366;SDS011;30086;57.660;12.000;2022-12-29T14:31:49;47.58;;;10.00;;
44366;SDS011;30086;57.660;12.000;2022-12-29T14:35:01;47.90;;;9.68;;
44366;SDS011;30086;57.660;12.000;2022-12-29T14:37:03;51.63;;;9.50;;
44366;SDS011;30086;57.660;12.000;2022-12-29T14:39:42;134.63;;;122.65;;
44366;SDS011;30086;57.660;12.000;2022-12-29T14:47:16;48.22;;;7.95;;
44366;SDS011;30086;57.660;12.000;2022-12-29T14:49:44;40.85;;;6.43;;
44366;SDS011;30086;57.660;12.000;2022-12-29T14:54:46;106.95;;;98.40;;
44366;SDS011;30086;57.660;12.000;2022-12-29T14:57:36;36.40;;;19.60;;
44366;SDS011;30086;57.660;12.000;2022-12-29T15:00:07;46.10;;;29.75;;
44366;SDS011;30086;57.660;12.000;2022-12-29T15:02:34;29.08;;;5.15;;
44366;SDS011;30086;57.660;12.000;2022-12-29T15:05:03;34.85;;;6.93;;
44366;SDS011;30086;57.660;12.000;2022-12-29T15:07:31;35.22;;;18.52;;
44366;SDS011;30086;57.660;12.000;2022-12-29T15:10:17;52.80;;;47.03;;
44366;SDS011;30086;57.660;12.000;2022-12-29T15:12:47;30.35;;;17.20;;
44366;SDS011;30086;57.660;12.000;2022-12-29T15:15:26;83.72;;;76.60;;
44366;SDS011;30086;57.660;12.000;2022-12-29T15:17:55;30.13;;;18.05;;
44366;SDS011;30086;57.660;12.000;2022-12-29T15:20:27;25.92;;;4.63;;
44366;SDS011;30086;57.660;12.000;2022-12-29T15:22:55;27.67;;;3.97;;
44366;SDS011;30086;57.660;12.000;2022-12-29T15:25:22;16.58;;;3.42;;
44366;SDS011;30086;57.660;12.000;2022-12-29T15:27:52;43.25;;;38.63;;
44366;SDS011;30086;57.660;12.000;2022-12-29T15:30:19;31.80;;;27.92;;
44366;SDS011;30086;57.660;12.000;2022-12-29T15:32:46;39.20;;;35.53;;
44366;SDS011;30086;57.660;12.000;2022-12-29T15:37:57;18.30;;;4.07;;
44366;SDS011;30086;57.660;12.000;2022-12-29T15:40:25;18.00;;;2.78;;
44366;SDS011;30086;57.660;12.000;2022-12-29T15:45:29;21.00;;;3.20;;
44366;SDS011;30086;57.660;12.000;2022-12-29T15:47:57;18.10;;;5.20;;
44366;SDS011;30086;57.660;12.000;2022-12-29T15:50:28;17.05;;;3.88;;
44366;SDS011;30086;57.660;12.000;2022-12-29T15:52:56;34.53;;;28.63;;
44366;SDS011;30086;57.660;12.000;2022-12-29T15:55:33;34.45;;;30.88;;
44366;SDS011;30086;57.660;12.000;2022-12-29T15:58:01;20.30;;;5.05;;
44366;SDS011;30086;57.660;12.000;2022-12-29T16:00:34;25.75;;;8.05;;
44366;SDS011;30086;57.660;12.000;2022-12-29T16:03:03;39.28;;;26.23;;
44366;SDS011;30086;57.660;12.000;2022-12-29T16:05:39;31.90;;;24.40;;
44366;SDS011;30086;57.660;12.000;2022-12-29T16:08:26;100.25;;;92.70;;
44366;SDS011;30086;57.660;12.000;2022-12-29T16:10:54;32.08;;;7.13;;
44366;SDS011;30086;57.660;12.000;2022-12-29T16:13:27;27.65;;;7.13;;
44366;SDS011;30086;57.660;12.000;2022-12-29T16:16:13;24.98;;;5.40;;
44366;SDS011;30086;57.660;12.000;2022-12-29T16:18:42;21.80;;;4.13;;
44366;SDS011;30086;57.660;12.000;2022-12-29T16:21:20;72.57;;;66.93;;
44366;SDS011;30086;57.660;12.000;2022-12-29T16:23:48;27.20;;;12.20;;
44366;SDS011;30086;57.660;12.000;2022-12-29T16:26:19;27.92;;;4.45;;
44366;SDS011;30086;57.660;12.000;2022-12-29T16:28:59;87.95;;;80.88;;
44366;SDS011;30086;57.660;12.000;2022-12-29T16:31:34;44.90;;;39.05;;
44366;SDS011;30086;57.660;12.000;2022-12-29T16:36:29;31.10;;;6.22;;
44366;SDS011;30086;57.660;12.000;2022-12-29T16:39:11;27.77;;;11.35;;
44366;SDS011;30086;57.660;12.000;2022-12-29T16:41:43;26.20;;;4.43;;
44366;SDS011;30086;57.660;12.000;2022-12-29T16:44:42;51.83;;;46.60;;
44366;SDS011;30086;57.660;12.000;2022-12-29T16:47:03;38.53;;;19.25;;
44366;SDS011;30086;57.660;12.000;2022-12-29T16:49:30;32.58;;;10.20;;
44366;SDS011;30086;57.660;12.000;2022-12-29T16:51:57;39.17;;;25.50;;
44366;SDS011;30086;57.660;12.000;2022-12-29T16:54:33;35.05;;;28.08;;
44366;SDS011;30086;57.660;12.000;2022-12-29T16:57:00;55.83;;;50.70;;
44366;SDS011;30086;57.660;12.000;2022-12-29T16:59:30;24.88;;;7.75;;
44366;SDS011;30086;57.660;12.000;2022-12-29T17:01:59;26.30;;;5.03;;
44366;SDS011;30086;57.660;12.000;2022-12-29T17:04:28;88.47;;;81.40;;